Time;durP1;ratioP1;P1;durP2;ratioP2;P2;SDS_P1;SDS_P2;PMS_P1;PMS_P2;Temp;Humidity;BMP_temperature;BMP_pressure;BME280_temperature;BME280_humidity;BME280_pressure;Samples;Min_cycle;Max_cycle;Signal;HPM_P1;HPM_P2
2023/01/27 00:00:24;;;;;;;22.37;20.67;;;4.40;29.20;;;;;;5112113;28;20401;-76
2023/01/27 00:02:50;;;;;;;23.80;22.00;;;4.40;28.40;;;;;;5111784;28;20456;-74
2023/01/27 00:05:16;;;;;;;24.90;23.00;;;4.40;28.40;;;;;;5115042;28;20413;-74
2023/01/27 00:07:45;;;;;;;24.43;22.53;;;4.40;28.40;;;;;;5112750;28;20199;-74
2023/01/27 00:10:17;;;;;;;23.50;21.90;;;4.40;28.40;;;;;;5110300;28;20827;-74
2023/01/27 00:15:30;;;;;;;23.80;22.00;;;4.10;28.70;;;;;;5102970;28;20466;-74
2023/01/27 00:17:56;;;;;;;22.33;20.67;;;4.00;29.70;;;;;;5097130;28;20428;-74
2023/01/27 00:25:59;;;;;;;21.57;20.07;;;4.20;29.40;;;;;;5111341;28;20426;-75
2023/01/27 00:28:25;;;;;;;22.03;20.53;;;4.20;28.70;;;;;;5104335;28;20423;-75
2023/01/27 00:30:51;;;;;;;22.53;20.90;;;4.20;28.60;;;;;;5096307;28;20852;-75
2023/01/27 00:33:29;;;;;;;22.60;20.90;;;4.30;28.40;;;;;;5091938;28;20488;-74
2023/01/27 00:36:04;;;;;;;21.80;20.10;;;4.20;28.50;;;;;;5089729;28;20482;-75
2023/01/27 00:38:33;;;;;;;22.00;20.43;;;4.30;28.90;;;;;;5092706;28;20409;-75
2023/01/27 00:43:42;;;;;;;22.50;20.80;;;4.30;28.40;;;;;;5092685;28;21058;-76
2023/01/27 00:46:08;;;;;;;23.67;21.87;;;4.30;28.50;;;;;;5090319;28;20460;-75
2023/01/27 00:48:34;;;;;;;23.13;21.40;;;4.30;28.40;;;;;;5090667;28;20182;-76
2023/01/27 00:51:00;;;;;;;22.97;21.30;;;4.30;28.40;;;;;;5090209;28;20178;-76
2023/01/27 00:53:26;;;;;;;22.20;20.60;;;4.30;28.40;;;;;;5091005;28;20421;-76
2023/01/27 00:55:51;;;;;;;23.87;21.97;;;4.30;28.40;;;;;;5091252;28;20173;-76
2023/01/27 00:58:17;;;;;;;22.80;21.10;;;4.20;28.40;;;;;;5090995;28;20559;-75
2023/01/27 01:00:43;;;;;;;24.20;22.40;;;4.20;28.50;;;;;;5092441;28;20214;-75
2023/01/27 01:03:09;;;;;;;22.10;20.50;;;4.30;28.50;;;;;;5090479;28;20167;-76
2023/01/27 01:05:34;;;;;;;25.33;23.50;;;4.30;28.90;;;;;;5091941;28;20438;-75
2023/01/27 01:08:00;;;;;;;25.67;23.67;;;4.20;28.80;;;;;;5091358;28;20230;-75
2023/01/27 01:10:26;;;;;;;25.07;23.10;;;4.20;29.10;;;;;;5091339;28;20175;-74
2023/01/27 01:12:51;;;;;;;23.07;21.43;;;4.20;29.60;;;;;;5089790;28;20182;-75
2023/01/27 01:15:17;;;;;;;23.10;21.40;;;4.20;29.10;;;;;;5089361;28;20202;-76
2023/01/27 01:17:42;;;;;;;23.03;21.20;;;4.30;29.10;;;;;;5088175;28;20289;-75
2023/01/27 01:20:08;;;;;;;23.73;22.00;;;4.30;29.20;;;;;;5090599;28;20174;-76
2023/01/27 01:22:34;;;;;;;23.10;21.37;;;4.30;28.70;;;;;;5089577;28;20174;-75
2023/01/27 01:24:59;;;;;;;23.87;22.17;;;4.40;28.50;;;;;;5089639;28;20408;-77
2023/01/27 01:27:25;;;;;;;23.90;22.10;;;4.30;28.40;;;;;;5089968;28;20635;-75
2023/01/27 01:29:51;;;;;;;25.83;23.93;;;4.20;28.60;;;;;;5088902;28;20821;-76
2023/01/27 01:32:16;;;;;;;23.90;22.20;;;4.20;29.40;;;;;;5088307;28;20412;-76
2023/01/27 01:34:42;;;;;;;25.20;23.20;;;4.20;29.10;;;;;;5088087;28;20206;-76
2023/01/27 01:37:08;;;;;;;25.00;23.20;;;4.30;29.10;;;;;;5087798;28;20569;-75
2023/01/27 01:39:33;;;;;;;24.10;22.40;;;4.30;29.30;;;;;;5087669;28;20217;-75
2023/01/27 01:41:59;;;;;;;24.53;22.83;;;4.30;29.10;;;;;;5087452;28;20211;-75
2023/01/27 01:44:30;;;;;;;25.77;23.80;;;4.20;28.30;;;;;;5089051;28;20201;-76
2023/01/27 01:46:55;;;;;;;25.00;22.97;;;4.10;29.00;;;;;;5089771;28;20435;-76
2023/01/27 01:49:26;;;;;;;25.57;23.37;;;4.10;29.10;;;;;;5090161;28;20413;-76
2023/01/27 01:52:00;;;;;;;23.27;21.57;;;4.10;29.10;;;;;;5089709;28;20155;-76
2023/01/27 01:54:31;;;;;;;24.57;22.77;;;4.20;29.00;;;;;;5088038;28;20475;-75
2023/01/27 01:57:05;;;;;;;23.77;22.07;;;4.10;28.50;;;;;;5089282;28;20452;-75
2023/01/27 01:59:32;;;;;;;23.60;21.80;;;3.80;30.40;;;;;;5089068;28;20413;-76
2023/01/27 02:02:07;;;;;;;22.03;20.53;;;3.70;30.40;;;;;;5091500;28;20906;-75
2023/01/27 02:04:46;;;;;;;22.53;20.87;;;3.80;30.60;;;;;;5089920;28;20408;-76
2023/01/27 02:07:20;;;;;;;22.27;20.57;;;3.80;29.90;;;;;;5088600;28;20444;-75
2023/01/27 02:09:45;;;;;;;23.10;21.50;;;3.90;29.30;;;;;;5089157;28;20767;-75
2023/01/27 02:12:11;;;;;;;21.57;19.97;;;4.00;29.00;;;;;;5088151;28;20419;-76
2023/01/27 02:14:38;;;;;;;21.93;20.30;;;4.00;29.00;;;;;;5087792;28;20684;-76
2023/01/27 02:17:04;;;;;;;21.40;19.90;;;4.10;28.90;;;;;;5089108;28;20198;-76
2023/01/27 02:19:36;;;;;;;21.03;19.53;;;4.20;28.30;;;;;;5089098;28;20806;-76
2023/01/27 02:22:04;;;;;;;21.67;20.07;;;4.30;28.40;;;;;;5087305;28;20409;-74
2023/01/27 02:24:36;;;;;;;21.90;20.47;;;4.20;28.30;;;;;;5089591;28;20827;-75
2023/01/27 02:27:02;;;;;;;21.30;19.87;;;4.10;28.20;;;;;;5088124;28;20436;-75
2023/01/27 02:29:28;;;;;;;20.33;18.83;;;4.00;28.70;;;;;;5089484;28;20950;-75
2023/01/27 02:31:53;;;;;;;18.67;17.37;;;3.90;29.00;;;;;;5089459;28;20660;-76
2023/01/27 02:34:23;;;;;;;18.40;17.07;;;4.00;29.00;;;;;;5089123;28;20252;-76
2023/01/27 02:37:03;;;;;;;18.77;17.47;;;4.10;28.40;;;;;;5089265;28;20186;-75
2023/01/27 02:39:36;;;;;;;18.07;16.80;;;4.20;28.30;;;;;;5089730;28;20413;-74
2023/01/27 02:42:04;;;;;;;19.97;18.57;;;4.20;28.40;;;;;;5093089;28;20445;-75
2023/01/27 02:44:31;;;;;;;18.73;17.43;;;4.20;28.30;;;;;;5093243;28;20911;-75
2023/01/27 02:46:56;;;;;;;19.20;17.90;;;4.30;28.40;;;;;;5092682;28;20435;-75
2023/01/27 02:49:22;;;;;;;19.43;18.03;;;4.10;28.20;;;;;;5093523;28;20761;-76
2023/01/27 02:51:47;;;;;;;19.73;18.30;;;4.10;28.20;;;;;;5093040;28;20179;-76
2023/01/27 02:54:13;;;;;;;17.77;16.57;;;4.10;28.30;;;;;;5091347;28;20260;-76
2023/01/27 02:56:38;;;;;;;17.13;15.93;;;4.20;27.80;;;;;;5092922;28;20255;-76
2023/01/27 02:59:04;;;;;;;18.33;17.03;;;4.30;27.60;;;;;;5092419;28;20171;-75
2023/01/27 03:01:31;;;;;;;20.10;18.77;;;4.30;27.30;;;;;;5092902;28;20178;-75
2023/01/27 03:03:57;;;;;;;19.27;17.90;;;4.30;27.50;;;;;;5097796;28;20170;-74
2023/01/27 03:06:23;;;;;;;18.50;17.30;;;4.30;27.40;;;;;;5093585;28;20444;-75
2023/01/27 03:08:48;;;;;;;18.67;17.37;;;4.30;27.50;;;;;;5093477;28;20415;-75
2023/01/27 03:12:18;;;;;;;20.07;18.70;;;4.40;27.50;;;;;;5105198;28;20190;-74
2023/01/27 03:13:59;;;;;;;20.97;19.37;;;4.20;28.10;;;;;;5110818;28;20198;-75
2023/01/27 03:19:09;;;;;;;20.10;18.70;;;4.20;28.30;;;;;;5109500;28;20541;-75
2023/01/27 03:21:34;;;;;;;19.27;18.07;;;4.20;28.20;;;;;;5093566;28;20405;-74
2023/01/27 03:24:00;;;;;;;19.93;18.53;;;4.30;28.00;;;;;;5092926;28;20175;-74
2023/01/27 03:26:25;;;;;;;21.77;20.13;;;4.30;28.00;;;;;;5092595;28;20190;-74
2023/01/27 03:29:53;;;;;;;20.53;19.17;;;4.30;28.30;;;;;;5092569;28;20541;-75
2023/01/27 03:31:36;;;;;;;20.30;19.00;;;4.30;28.00;;;;;;5091020;28;20185;-75
2023/01/27 03:34:02;;;;;;;21.80;20.30;;;4.40;28.10;;;;;;5091815;28;20456;-75
2023/01/27 03:47:23;;;;;;;22.67;21.20;;;4.30;27.80;;;;;;5091332;28;20473;-75
2023/01/27 03:49:49;;;;;;;22.63;21.00;;;4.30;28.10;;;;;;5091698;28;20404;-75
2023/01/27 03:52:14;;;;;;;21.27;19.87;;;4.40;28.10;;;;;;5092606;28;20843;-75
2023/01/27 03:54:40;;;;;;;22.93;21.33;;;4.40;27.90;;;;;;5091541;28;20255;-75
2023/01/27 03:57:05;;;;;;;23.87;22.17;;;4.40;28.00;;;;;;5091565;28;20191;-76
2023/01/27 03:59:31;;;;;;;22.80;21.30;;;4.40;27.80;;;;;;5090419;28;20175;-76
2023/01/27 04:07:25;;;;;;;22.57;21.17;;;4.50;27.00;;;;;;5090906;28;20520;-75
2023/01/27 04:09:50;;;;;;;23.10;21.50;;;4.40;27.10;;;;;;5091800;28;20499;-75
2023/01/27 04:12:16;;;;;;;22.30;20.80;;;4.40;27.00;;;;;;5089084;28;20661;-75
2023/01/27 04:14:42;;;;;;;22.70;21.20;;;4.40;27.50;;;;;;5091827;28;20256;-75
2023/01/27 04:17:13;;;;;;;22.77;21.17;;;4.20;28.50;;;;;;5093266;28;20191;-75
2023/01/27 04:19:38;;;;;;;22.60;21.20;;;4.20;28.30;;;;;;5091217;28;20202;-76
2023/01/27 04:22:05;;;;;;;23.20;21.60;;;4.20;28.20;;;;;;5090221;28;20444;-76
2023/01/27 04:24:31;;;;;;;23.20;21.60;;;4.10;28.20;;;;;;5091384;28;20194;-76
2023/01/27 04:27:01;;;;;;;22.73;21.17;;;4.00;28.50;;;;;;5090694;28;20927;-75
2023/01/27 04:29:30;;;;;;;21.80;20.27;;;4.10;28.20;;;;;;5090663;28;20147;-75
2023/01/27 04:31:56;;;;;;;22.93;21.33;;;4.10;28.20;;;;;;5090712;28;20409;-76
2023/01/27 04:34:23;;;;;;;24.23;22.47;;;4.10;28.20;;;;;;5090239;28;20459;-75
2023/01/27 04:36:48;;;;;;;22.47;20.97;;;4.00;28.20;;;;;;5091110;28;20425;-75
2023/01/27 04:39:15;;;;;;;23.00;21.40;;;4.00;28.70;;;;;;5090598;28;20424;-75
2023/01/27 04:41:41;;;;;;;23.93;22.33;;;4.10;28.60;;;;;;5090823;28;20167;-74
2023/01/27 04:44:07;;;;;;;23.73;22.03;;;4.30;28.40;;;;;;5090542;28;20416;-76
2023/01/27 04:46:33;;;;;;;24.67;23.07;;;4.40;28.00;;;;;;5088454;28;20439;-76
2023/01/27 04:49:00;;;;;;;24.27;22.67;;;4.50;27.90;;;;;;5090057;28;20167;-76
2023/01/27 04:51:26;;;;;;;22.10;20.50;;;4.60;27.50;;;;;;5089394;28;20416;-76
2023/01/27 04:53:52;;;;;;;22.40;20.90;;;4.70;27.30;;;;;;5088700;28;20499;-76
2023/01/27 04:56:21;;;;;;;24.03;22.33;;;4.80;27.00;;;;;;5088926;28;20449;-75
2023/01/27 04:58:46;;;;;;;22.30;20.80;;;4.90;26.30;;;;;;5089333;28;20194;-74
2023/01/27 05:01:12;;;;;;;23.67;22.13;;;4.80;26.60;;;;;;5089087;28;20836;-75
2023/01/27 05:03:37;;;;;;;25.03;23.37;;;4.80;26.60;;;;;;5087844;28;20194;-75
2023/01/27 05:06:03;;;;;;;25.27;23.57;;;4.80;26.60;;;;;;5088286;28;20171;-75
2023/01/27 05:08:29;;;;;;;25.77;23.87;;;4.90;26.90;;;;;;5089509;28;20660;-75
2023/01/27 05:10:55;;;;;;;26.07;24.17;;;4.90;26.90;;;;;;5090013;28;20408;-75
2023/01/27 05:13:20;;;;;;;25.97;24.17;;;5.00;26.50;;;;;;5089492;28;20183;-75
2023/01/27 05:15:46;;;;;;;26.60;24.77;;;5.00;26.30;;;;;;5089695;28;20163;-75
2023/01/27 05:18:12;;;;;;;25.10;23.37;;;4.90;26.10;;;;;;5088795;28;20201;-75
2023/01/27 05:20:38;;;;;;;25.47;23.77;;;4.90;26.10;;;;;;5090096;28;20808;-75
2023/01/27 05:25:47;;;;;;;28.57;26.57;;;4.90;26.50;;;;;;5090264;28;20205;-75
2023/01/27 05:28:13;;;;;;;26.47;24.37;;;4.80;26.90;;;;;;5089796;28;20460;-76
2023/01/27 05:30:38;;;;;;;24.67;22.97;;;4.90;26.70;;;;;;5089499;28;20179;-77
2023/01/27 05:33:04;;;;;;;26.87;24.87;;;4.90;26.40;;;;;;5089594;28;20548;-74
2023/01/27 05:35:34;;;;;;;26.57;24.57;;;4.90;26.30;;;;;;5089888;28;20859;-74
2023/01/27 05:38:00;;;;;;;27.47;25.53;;;4.90;26.30;;;;;;5100286;28;20194;-75
2023/01/27 05:40:25;;;;;;;27.70;25.70;;;4.90;26.50;;;;;;5101389;28;20417;-75
2023/01/27 05:42:52;;;;;;;26.93;25.03;;;4.80;26.60;;;;;;5090033;28;20554;-75
2023/01/27 05:45:17;;;;;;;27.07;24.97;;;4.80;26.50;;;;;;5088719;28;20194;-75
2023/01/27 05:47:47;;;;;;;25.43;23.60;;;4.80;26.50;;;;;;5089773;28;20424;-75
2023/01/27 05:50:12;;;;;;;27.33;25.30;;;4.80;26.40;;;;;;5091013;28;20272;-75
2023/01/27 05:52:38;;;;;;;30.13;27.93;;;4.80;26.50;;;;;;5091082;28;20441;-75
2023/01/27 05:55:04;;;;;;;24.97;23.17;;;4.80;26.80;;;;;;5090398;28;20207;-75
2023/01/27 05:57:29;;;;;;;27.73;25.60;;;4.70;26.60;;;;;;5091339;28;20224;-75
2023/01/27 05:59:54;;;;;;;26.80;24.80;;;4.70;26.70;;;;;;5090106;28;20412;-74
2023/01/27 06:02:20;;;;;;;27.10;25.10;;;4.70;26.70;;;;;;5082185;28;20186;-74
2023/01/27 06:04:45;;;;;;;26.50;24.60;;;4.60;27.20;;;;;;5088482;28;20264;-74
2023/01/27 06:07:11;;;;;;;27.73;25.60;;;4.60;27.10;;;;;;5090926;28;20725;-75
2023/01/27 06:09:37;;;;;;;27.30;25.40;;;4.70;27.30;;;;;;5090312;28;20174;-75
2023/01/27 06:12:03;;;;;;;26.87;25.07;;;4.70;27.40;;;;;;5090656;28;20257;-75
2023/01/27 06:14:28;;;;;;;29.43;27.33;;;4.70;27.50;;;;;;5090175;28;20543;-74
2023/01/27 06:16:54;;;;;;;27.67;25.77;;;4.60;27.10;;;;;;5095164;28;20218;-76
2023/01/27 06:19:19;;;;;;;29.27;27.17;;;4.60;27.90;;;;;;5095898;28;20175;-75
2023/01/27 06:21:45;;;;;;;29.40;27.20;;;4.60;27.50;;;;;;5087402;28;20175;-76
2023/01/27 06:24:10;;;;;;;29.63;27.57;;;4.60;27.60;;;;;;5094765;28;20227;-75
2023/01/27 06:26:36;;;;;;;27.53;25.57;;;4.60;28.10;;;;;;5093981;28;20562;-75
2023/01/27 06:29:02;;;;;;;27.37;25.37;;;4.60;27.70;;;;;;5094903;28;20187;-75
2023/01/27 06:31:27;;;;;;;26.73;24.83;;;4.60;27.60;;;;;;5096004;28;20300;-75
2023/01/27 06:33:53;;;;;;;26.23;24.23;;;4.40;28.10;;;;;;5095375;28;20194;-76
2023/01/27 06:36:20;;;;;;;26.83;24.63;;;4.20;28.40;;;;;;5093909;28;20656;-75
2023/01/27 06:38:47;;;;;;;26.93;24.93;;;4.30;28.40;;;;;;5095071;28;20412;-74
2023/01/27 06:41:13;;;;;;;24.70;22.90;;;4.40;28.00;;;;;;5094393;28;20416;-75
2023/01/27 06:43:39;;;;;;;25.90;24.20;;;4.50;27.60;;;;;;5094081;28;20419;-75
2023/01/27 06:46:04;;;;;;;24.20;22.60;;;4.50;27.50;;;;;;5092828;28;20412;-75
2023/01/27 06:48:30;;;;;;;23.10;21.40;;;4.60;27.20;;;;;;5104316;28;20214;-75
2023/01/27 06:50:56;;;;;;;23.50;21.80;;;4.60;27.10;;;;;;5094983;28;20170;-75
2023/01/27 06:53:22;;;;;;;24.97;23.23;;;4.60;27.00;;;;;;5094816;28;21903;-74
2023/01/27 06:55:53;;;;;;;24.77;23.13;;;4.60;26.80;;;;;;5094817;28;20782;-74
2023/01/27 06:58:19;;;;;;;24.53;22.83;;;4.70;26.90;;;;;;5094607;28;21126;-73
2023/01/27 07:00:44;;;;;;;25.27;23.47;;;4.50;27.40;;;;;;5094063;28;20405;-73
2023/01/27 07:03:11;;;;;;;25.37;23.67;;;4.60;27.30;;;;;;5094129;28;20178;-73
2023/01/27 07:05:38;;;;;;;24.40;22.70;;;4.60;27.10;;;;;;5094907;28;20171;-74
2023/01/27 07:08:04;;;;;;;24.10;22.50;;;4.70;27.10;;;;;;5094471;28;20464;-74
2023/01/27 07:10:29;;;;;;;26.93;25.13;;;4.80;26.80;;;;;;5093738;28;20514;-73
2023/01/27 07:13:06;;;;;;;23.20;21.60;;;4.90;26.80;;;;;;5093941;28;20185;-74
2023/01/27 07:15:32;;;;;;;25.10;23.47;;;4.80;27.00;;;;;;5094382;28;20242;-73
2023/01/27 07:17:59;;;;;;;24.77;23.00;;;4.80;26.80;;;;;;5094117;28;21164;-73
2023/01/27 07:20:27;;;;;;;24.77;22.87;;;4.90;26.40;;;;;;5094348;28;20537;-74
2023/01/27 07:23:00;;;;;;;24.63;22.83;;;5.00;28.40;;;;;;5092909;28;20761;-73
2023/01/27 07:25:26;;;;;;;24.40;22.43;;;5.10;27.60;;;;;;5094230;28;20435;-73
2023/01/27 07:27:52;;;;;;;24.47;22.77;;;5.10;27.50;;;;;;5093188;28;20439;-75
2023/01/27 07:30:18;;;;;;;22.63;21.13;;;5.10;28.10;;;;;;5093933;28;20413;-75
2023/01/27 07:32:43;;;;;;;22.87;21.30;;;5.10;27.30;;;;;;5094295;28;20423;-75
2023/01/27 07:35:09;;;;;;;23.17;21.57;;;5.10;26.50;;;;;;5090925;28;20260;-77
2023/01/27 07:37:34;;;;;;;24.27;22.50;;;5.10;25.90;;;;;;5096685;28;20284;-77
2023/01/27 07:40:00;;;;;;;23.37;21.80;;;5.20;25.90;;;;;;5088715;28;20185;-80
2023/01/27 07:42:25;;;;;;;23.37;21.77;;;4.90;26.50;;;;;;5095370;28;20186;-77
2023/01/27 07:44:51;;;;;;;22.00;20.50;;;4.90;26.40;;;;;;5094012;28;20269;-75
2023/01/27 07:47:17;;;;;;;22.40;20.87;;;5.00;26.40;;;;;;5094162;28;20610;-75
2023/01/27 07:49:42;;;;;;;22.07;20.47;;;5.00;26.10;;;;;;5093866;28;20596;-77
2023/01/27 07:52:08;;;;;;;22.27;20.67;;;5.00;26.00;;;;;;5096043;28;20186;-77
2023/01/27 07:54:33;;;;;;;22.70;21.20;;;5.00;25.90;;;;;;5094078;28;20268;-76
2023/01/27 07:57:00;;;;;;;23.03;21.43;;;4.90;25.90;;;;;;5092692;28;20199;-76
2023/01/27 07:59:26;;;;;;;21.87;20.40;;;5.00;25.80;;;;;;5093408;28;20179;-79
2023/01/27 08:01:52;;;;;;;23.10;21.60;;;5.00;25.90;;;;;;5092922;28;20777;-77
2023/01/27 08:04:17;;;;;;;22.20;20.60;;;5.00;26.70;;;;;;5094057;28;20417;-76
2023/01/27 08:06:43;;;;;;;22.57;20.93;;;4.90;25.80;;;;;;5096090;28;20232;-75
2023/01/27 08:09:09;;;;;;;22.67;21.20;;;4.80;26.10;;;;;;5094405;28;20503;-76
2023/01/27 08:11:34;;;;;;;22.17;20.60;;;4.80;26.00;;;;;;5093168;28;20178;-76
2023/01/27 08:14:00;;;;;;;21.10;19.70;;;4.80;26.30;;;;;;5094394;28;20209;-77
2023/01/27 08:16:26;;;;;;;21.07;19.67;;;4.70;26.00;;;;;;5094684;28;20195;-76
2023/01/27 08:18:52;;;;;;;21.40;20.00;;;4.60;26.50;;;;;;5094839;28;20728;-77
2023/01/27 08:21:18;;;;;;;21.10;19.70;;;4.60;26.10;;;;;;5093549;28;20179;-76
2023/01/27 08:23:44;;;;;;;21.40;20.00;;;4.60;26.30;;;;;;5093901;28;20416;-76
2023/01/27 08:26:09;;;;;;;21.20;19.70;;;4.60;26.40;;;;;;5111376;28;20189;-76
2023/01/27 08:28:37;;;;;;;21.30;19.87;;;4.60;26.00;;;;;;5101248;28;20193;-75
2023/01/27 08:31:12;;;;;;;21.87;20.27;;;4.70;26.30;;;;;;5116798;28;20166;-75
2023/01/27 08:33:39;;;;;;;21.80;20.30;;;4.50;26.30;;;;;;5118733;28;20476;-75
2023/01/27 08:36:08;;;;;;;22.10;20.60;;;4.60;27.60;;;;;;5117115;28;20447;-76
2023/01/27 08:38:33;;;;;;;21.50;20.13;;;4.60;26.70;;;;;;5110492;28;20432;-76
2023/01/27 08:41:09;;;;;;;20.33;18.93;;;4.60;27.70;;;;;;5093380;28;20780;-76
2023/01/27 08:43:35;;;;;;;21.90;20.33;;;4.60;27.60;;;;;;5093940;28;20177;-76
2023/01/27 08:46:01;;;;;;;20.70;19.30;;;4.50;26.70;;;;;;5094233;28;20409;-76
2023/01/27 08:48:28;;;;;;;22.60;20.97;;;4.40;28.50;;;;;;5092432;28;20178;-75
2023/01/27 08:50:55;;;;;;;22.20;20.70;;;4.50;28.50;;;;;;5095735;28;20194;-76
2023/01/27 08:53:20;;;;;;;22.30;20.90;;;4.70;27.40;;;;;;5093243;28;20405;-76
2023/01/27 08:55:46;;;;;;;24.53;22.20;;;4.80;27.00;;;;;;5093575;28;20464;-76
2023/01/27 08:58:12;;;;;;;22.93;21.27;;;4.90;27.00;;;;;;5091471;28;20504;-77
2023/01/27 09:00:37;;;;;;;22.30;20.70;;;4.80;27.00;;;;;;5092068;28;20725;-77
2023/01/27 09:03:03;;;;;;;22.87;21.27;;;4.80;26.40;;;;;;5090371;28;20185;-76
2023/01/27 09:05:29;;;;;;;20.90;19.50;;;4.80;26.40;;;;;;5093062;28;20186;-75
2023/01/27 09:07:54;;;;;;;21.67;20.17;;;4.80;26.20;;;;;;5091457;28;20622;-75
2023/01/27 09:10:20;;;;;;;21.47;19.90;;;4.90;25.60;;;;;;5092605;28;20779;-76
2023/01/27 09:12:45;;;;;;;24.43;21.77;;;4.80;25.50;;;;;;5092697;28;20763;-75
2023/01/27 09:15:12;;;;;;;22.23;20.73;;;4.60;26.40;;;;;;5092877;28;20821;-76
2023/01/27 09:17:38;;;;;;;21.73;20.03;;;4.60;26.90;;;;;;5092917;28;20183;-76
2023/01/27 09:20:04;;;;;;;19.30;17.90;;;4.70;27.00;;;;;;5092496;28;20420;-76
2023/01/27 09:22:30;;;;;;;20.67;19.27;;;4.70;27.30;;;;;;5092663;28;20771;-76
2023/01/27 09:24:55;;;;;;;22.27;20.70;;;4.80;26.20;;;;;;5091312;28;20485;-76
2023/01/27 09:27:21;;;;;;;20.37;18.97;;;4.80;26.30;;;;;;5091089;28;20202;-76
2023/01/27 09:29:46;;;;;;;23.50;21.50;;;4.70;27.00;;;;;;5092939;28;20185;-76
2023/01/27 09:32:12;;;;;;;21.33;19.67;;;4.70;26.80;;;;;;5092893;28;20182;-75
2023/01/27 09:34:38;;;;;;;24.67;22.67;;;4.80;26.50;;;;;;5091267;28;20210;-76
2023/01/27 09:37:08;;;;;;;22.27;20.57;;;4.50;27.00;;;;;;5090887;28;20194;-75
2023/01/27 09:39:39;;;;;;;22.00;20.47;;;4.50;26.00;;;;;;5092658;28;20421;-76
2023/01/27 09:42:31;;;;;;;22.90;21.20;;;4.30;26.80;;;;;;5092432;28;20405;-75
2023/01/27 09:45:24;;;;;;;22.53;20.93;;;4.30;26.30;;;;;;5091068;28;21074;-76
2023/01/27 09:48:19;;;;;;;23.47;21.67;;;4.40;26.10;;;;;;5092870;28;20433;-76
2023/01/27 09:50:56;;;;;;;24.70;22.90;;;4.60;25.90;;;;;;5090910;28;20427;-76
2023/01/27 09:53:46;;;;;;;22.70;21.00;;;4.60;26.10;;;;;;5092501;28;20436;-77
2023/01/27 09:56:33;;;;;;;24.30;22.40;;;4.70;25.70;;;;;;5092570;28;20421;-77
2023/01/27 09:59:33;;;;;;;24.73;22.83;;;4.70;25.30;;;;;;5090044;28;20415;-77
2023/01/27 10:02:11;;;;;;;22.50;20.60;;;4.70;25.30;;;;;;5105025;28;20499;-77
2023/01/27 10:04:59;;;;;;;23.97;22.07;;;4.60;25.40;;;;;;5092648;28;20400;-77
2023/01/27 10:08:01;;;;;;;23.13;21.43;;;4.60;25.30;;;;;;5079144;28;20429;-76
2023/01/27 10:11:11;;;;;;;25.13;23.13;;;4.60;25.20;;;;;;5093352;28;20412;-77
2023/01/27 10:13:44;;;;;;;24.60;22.60;;;4.60;25.70;;;;;;5089255;28;20468;-77
2023/01/27 10:16:30;;;;;;;23.70;21.80;;;4.60;25.60;;;;;;5093812;28;20425;-74
2023/01/27 10:19:06;;;;;;;22.83;20.93;;;4.60;26.30;;;;;;5098956;28;20431;-75
2023/01/27 10:21:57;;;;;;;23.20;21.30;;;4.60;26.00;;;;;;5083870;28;20416;-75
2023/01/27 10:24:38;;;;;;;22.33;20.60;;;4.70;25.50;;;;;;5091418;28;20427;-76
2023/01/27 10:27:14;;;;;;;23.03;21.23;;;4.70;25.40;;;;;;5086666;28;20449;-76
2023/01/27 10:30:03;;;;;;;20.27;18.57;;;4.80;25.40;;;;;;5086732;28;20976;-77
2023/01/27 10:32:42;;;;;;;20.40;18.87;;;4.80;25.10;;;;;;5089394;28;20448;-78
2023/01/27 10:35:16;;;;;;;21.37;19.67;;;4.80;24.40;;;;;;5092794;28;20455;-76
2023/01/27 10:37:57;;;;;;;20.27;18.63;;;5.00;24.50;;;;;;5091358;28;20962;-76
2023/01/27 10:40:39;;;;;;;21.73;20.13;;;4.80;24.60;;;;;;5090850;28;20481;-77
2023/01/27 10:43:19;;;;;;;20.90;19.30;;;4.80;24.80;;;;;;5090219;28;20412;-76
2023/01/27 10:46:09;;;;;;;19.77;18.27;;;4.80;24.80;;;;;;5092616;28;20428;-75
2023/01/27 10:48:53;;;;;;;20.27;18.73;;;4.90;24.90;;;;;;5075787;28;20889;-77
2023/01/27 10:51:31;;;;;;;19.90;18.40;;;4.70;25.00;;;;;;5082615;28;20507;-77
2023/01/27 10:54:08;;;;;;;19.30;17.87;;;4.50;25.60;;;;;;5092189;28;20516;-77
2023/01/27 10:56:50;;;;;;;19.37;17.87;;;4.60;25.50;;;;;;5086149;28;20455;-77
2023/01/27 10:59:31;;;;;;;18.93;17.57;;;4.50;25.70;;;;;;5092102;28;20453;-77
2023/01/27 11:02:44;;;;;;;20.37;18.87;;;4.50;25.80;;;;;;5093164;28;20473;-75
2023/01/27 11:05:22;;;;;;;19.50;18.10;;;4.50;25.20;;;;;;4999585;28;20494;-77
2023/01/27 11:07:58;;;;;;;19.40;17.90;;;4.60;25.00;;;;;;5102223;28;20432;-76
2023/01/27 11:10:32;;;;;;;21.50;20.00;;;4.50;25.00;;;;;;5096961;28;20423;-76
2023/01/27 11:13:00;;;;;;;20.30;18.80;;;4.40;25.90;;;;;;5095791;28;20813;-76
2023/01/27 11:15:27;;;;;;;20.30;18.37;;;4.60;25.40;;;;;;5093977;28;20460;-75
2023/01/27 11:17:59;;;;;;;21.07;19.20;;;4.70;25.20;;;;;;5083012;28;20536;-74
2023/01/27 11:20:34;;;;;;;19.43;17.93;;;4.40;25.80;;;;;;5091922;28;20424;-76
2023/01/27 11:23:08;;;;;;;20.47;19.00;;;4.20;26.60;;;;;;5095571;28;20769;-77
2023/01/27 11:25:58;;;;;;;20.87;19.17;;;4.40;26.60;;;;;;5095944;28;20826;-76
2023/01/27 11:28:44;;;;;;;19.23;17.83;;;4.60;26.30;;;;;;5085827;28;20761;-77
2023/01/27 11:31:31;;;;;;;19.80;18.30;;;4.80;25.30;;;;;;5097564;28;20450;-76
2023/01/27 11:34:21;;;;;;;20.17;18.67;;;4.90;24.80;;;;;;5094933;28;21036;-75
2023/01/27 11:36:48;;;;;;;19.80;18.20;;;5.00;24.80;;;;;;5081520;28;20931;-75
2023/01/27 11:39:14;;;;;;;18.60;17.30;;;4.70;25.70;;;;;;5093084;28;20480;-75
2023/01/27 11:41:45;;;;;;;18.73;17.33;;;4.80;25.50;;;;;;5088247;28;20420;-76
2023/01/27 11:44:23;;;;;;;19.10;17.70;;;4.80;24.90;;;;;;5085369;28;20415;-76
2023/01/27 11:46:50;;;;;;;18.83;17.20;;;4.90;24.80;;;;;;5092560;28;20448;-75
2023/01/27 11:49:22;;;;;;;17.53;16.33;;;5.00;24.90;;;;;;5094594;28;20413;-76
2023/01/27 11:51:48;;;;;;;18.10;16.80;;;5.00;25.00;;;;;;5082154;28;20409;-76
2023/01/27 11:54:13;;;;;;;20.50;19.10;;;5.10;24.60;;;;;;5094714;28;20547;-76
2023/01/27 11:56:42;;;;;;;19.20;17.90;;;5.10;24.50;;;;;;5099039;28;20195;-77
2023/01/27 11:59:16;;;;;;;17.53;16.23;;;5.10;24.50;;;;;;5093378;28;20629;-76
2023/01/27 12:01:52;;;;;;;18.30;16.90;;;5.10;24.90;;;;;;5092613;28;20423;-76
2023/01/27 12:04:31;;;;;;;18.23;16.83;;;5.20;24.50;;;;;;5094201;28;20413;-76
2023/01/27 12:07:19;;;;;;;19.17;17.67;;;5.10;24.60;;;;;;5094478;28;20425;-75
2023/01/27 12:09:45;;;;;;;17.53;16.23;;;5.10;24.60;;;;;;5095091;28;20624;-76
2023/01/27 12:12:13;;;;;;;18.20;16.77;;;5.20;24.60;;;;;;5094375;28;20493;-76
2023/01/27 12:14:53;;;;;;;19.37;17.87;;;5.20;24.60;;;;;;5094842;28;20198;-76
2023/01/27 12:17:34;;;;;;;18.43;17.13;;;5.10;24.20;;;;;;5095282;28;20557;-76
2023/01/27 12:20:25;;;;;;;19.70;18.13;;;5.20;24.80;;;;;;5095622;28;20773;-75
2023/01/27 12:22:57;;;;;;;17.77;16.57;;;5.20;24.60;;;;;;5080869;28;20423;-75
2023/01/27 12:25:30;;;;;;;21.70;20.10;;;5.30;24.70;;;;;;5097144;28;20770;-76
2023/01/27 12:27:59;;;;;;;19.53;18.03;;;5.30;24.30;;;;;;5095661;28;20448;-76
2023/01/27 12:30:32;;;;;;;21.03;19.37;;;5.30;24.20;;;;;;5094913;28;20420;-75
2023/01/27 12:32:58;;;;;;;19.73;18.33;;;5.30;24.70;;;;;;5094026;28;20474;-75
2023/01/27 12:35:32;;;;;;;20.37;18.90;;;5.30;24.40;;;;;;5094362;28;20942;-75
2023/01/27 12:38:19;;;;;;;21.50;19.80;;;5.20;24.30;;;;;;5093005;28;20516;-75
2023/01/27 12:40:46;;;;;;;20.13;18.73;;;5.10;24.90;;;;;;5094184;28;20405;-75
2023/01/27 12:43:21;;;;;;;20.87;19.27;;;5.10;24.90;;;;;;5093905;28;20421;-76
2023/01/27 12:46:03;;;;;;;21.27;19.67;;;5.10;25.20;;;;;;5094780;28;20404;-77
2023/01/27 12:48:32;;;;;;;20.07;18.47;;;5.20;25.40;;;;;;5093370;28;20421;-76
2023/01/27 12:51:05;;;;;;;20.03;18.50;;;5.20;25.20;;;;;;5093687;28;20919;-76
2023/01/27 12:53:31;;;;;;;21.47;19.67;;;5.20;25.00;;;;;;5093919;28;20432;-76
2023/01/27 12:56:16;;;;;;;19.47;17.97;;;5.30;25.00;;;;;;5093680;28;20452;-76
2023/01/27 12:58:56;;;;;;;20.63;19.13;;;5.30;25.10;;;;;;5094655;28;20640;-76
2023/01/27 13:01:40;;;;;;;23.00;21.10;;;5.30;24.90;;;;;;5093542;28;20444;-75
2023/01/27 13:04:20;;;;;;;22.90;21.10;;;5.20;25.10;;;;;;5093470;28;20822;-75
2023/01/27 13:06:49;;;;;;;21.53;19.83;;;5.20;25.00;;;;;;5089255;28;20454;-75
2023/01/27 13:09:49;;;;;;;21.67;20.07;;;5.10;25.40;;;;;;5093013;28;20472;-75
2023/01/27 13:12:19;;;;;;;20.83;19.33;;;5.10;25.40;;;;;;5093041;28;20508;-75
2023/01/27 13:14:51;;;;;;;30.30;20.47;;;5.20;25.60;;;;;;5093804;28;20452;-75
2023/01/27 13:17:36;;;;;;;23.37;21.57;;;5.10;25.80;;;;;;5094763;28;20439;-76
2023/01/27 13:20:14;;;;;;;20.27;18.70;;;5.10;26.20;;;;;;5093847;28;20420;-75
2023/01/27 13:22:45;;;;;;;21.67;20.07;;;5.10;27.10;;;;;;5094621;28;20431;-74